createdAt,value
2023-04-20T00:02:04.325Z,80.50
2023-04-20T00:04:31.704Z,80.80
2023-04-20T00:06:58.693Z,80.90
2023-04-20T00:09:27.112Z,81.10
2023-04-20T00:11:54.077Z,81.00
2023-04-20T00:14:21.041Z,81.10
2023-04-20T00:16:48.967Z,81.10
2023-04-20T00:19:16.144Z,80.90
2023-04-20T00:21:43.436Z,80.90
2023-04-20T00:24:10.327Z,80.70
2023-04-20T00:26:37.245Z,80.50
2023-04-20T00:29:04.096Z,80.70
2023-04-20T00:31:32.022Z,81.10
2023-04-20T00:33:59.129Z,81.00
2023-04-20T00:36:27.474Z,81.20
2023-04-20T00:38:54.330Z,81.20
2023-04-20T00:41:21.466Z,81.30
2023-04-20T00:43:54.659Z,81.30
2023-04-20T00:46:22.287Z,81.40
2023-04-20T00:48:54.341Z,81.40
2023-04-20T00:51:22.620Z,81.00
2023-04-20T00:53:49.568Z,80.70
2023-04-20T00:56:16.965Z,80.50
2023-04-20T00:58:43.967Z,80.00
2023-04-20T01:01:12.041Z,79.40
2023-04-20T01:03:42.608Z,79.40
2023-04-20T01:06:10.152Z,79.10
2023-04-20T01:08:49.014Z,79.00
2023-04-20T01:11:16.160Z,78.80
2023-04-20T01:13:43.694Z,78.60
2023-04-20T01:16:11.971Z,78.60
2023-04-20T01:18:44.537Z,78.60
2023-04-20T01:21:12.870Z,78.60
2023-04-20T01:23:39.970Z,78.70
2023-04-20T01:26:08.805Z,78.80
2023-04-20T01:28:35.836Z,78.80
2023-04-20T01:31:04.414Z,79.00
2023-04-20T01:33:32.455Z,78.70
2023-04-20T01:35:59.400Z,78.80
2023-04-20T01:38:26.903Z,79.00
2023-04-20T01:40:55.137Z,79.00
2023-04-20T01:43:22.605Z,79.20
2023-04-20T01:45:49.544Z,79.20
2023-04-20T01:48:16.708Z,79.20
2023-04-20T01:50:43.687Z,79.10
2023-04-20T01:53:13.749Z,79.30
2023-04-20T01:55:41.210Z,79.50
2023-04-20T01:58:08.103Z,79.70
2023-04-20T02:00:35.283Z,79.90
2023-04-20T02:03:02.460Z,80.20
2023-04-20T02:05:29.512Z,80.40
2023-04-20T02:07:58.056Z,80.80
2023-04-20T02:10:25.780Z,81.00
2023-04-20T02:12:52.658Z,81.20
2023-04-20T02:15:19.614Z,81.50
2023-04-20T02:17:47.283Z,81.70
2023-04-20T02:20:14.615Z,82.00
2023-04-20T02:22:41.551Z,82.20
2023-04-20T02:25:09.223Z,82.50
2023-04-20T02:27:37.233Z,82.60
2023-04-20T02:30:06.348Z,82.60
2023-04-20T02:32:33.306Z,82.70
2023-04-20T02:35:00.561Z,82.90
2023-04-20T02:37:27.509Z,83.10
2023-04-20T02:39:54.605Z,83.40
2023-04-20T02:42:21.582Z,83.50
2023-04-20T02:44:49.205Z,83.70
2023-04-20T02:47:16.744Z,83.60
2023-04-20T02:49:44.269Z,83.90
2023-04-20T02:52:11.283Z,84.10
2023-04-20T02:54:38.488Z,84.30
2023-04-20T02:57:05.639Z,84.50
2023-04-20T02:59:33.328Z,84.70
2023-04-20T03:02:05.880Z,85.00
2023-04-20T03:04:33.317Z,85.10
2023-04-20T03:07:15.256Z,85.30
2023-04-20T03:09:43.828Z,85.40
2023-04-20T03:12:20.037Z,85.30
2023-04-20T03:15:06.464Z,85.20
2023-04-20T03:17:56.549Z,85.20
2023-04-20T03:20:24.218Z,85.40
2023-04-20T03:22:51.596Z,85.50
2023-04-20T03:25:21.814Z,85.50
2023-04-20T03:27:53.607Z,85.30
2023-04-20T03:30:21.434Z,85.20
2023-04-20T03:32:54.437Z,85.10
2023-04-20T03:35:21.713Z,85.10
2023-04-20T03:37:48.747Z,85.40
2023-04-20T03:40:16.004Z,85.70
2023-04-20T03:42:43.001Z,85.90
2023-04-20T03:45:10.853Z,85.90
2023-04-20T03:47:38.068Z,86.10
2023-04-20T03:50:06.495Z,86.30
2023-04-20T03:52:33.535Z,86.50
2023-04-20T03:55:04.634Z,86.50
2023-04-20T03:57:33.882Z,86.60
2023-04-20T04:00:03.971Z,86.70
2023-04-20T04:02:45.712Z,86.70
2023-04-20T04:05:15.190Z,86.70
2023-04-20T04:07:42.568Z,86.70
2023-04-20T04:10:10.945Z,86.70
2023-04-20T04:12:39.268Z,86.80
2023-04-20T04:15:08.393Z,86.90
2023-04-20T04:17:41.633Z,86.80
2023-04-20T04:20:10.033Z,86.70
2023-04-20T04:22:37.185Z,86.90
2023-04-20T04:25:30.998Z,87.20
2023-04-20T04:27:59.080Z,87.60
2023-04-20T04:30:29.373Z,88.00
2023-04-20T04:32:56.686Z,88.50
2023-04-20T04:35:23.995Z,88.80
2023-04-20T04:37:52.756Z,88.80
2023-04-20T04:40:20.126Z,89.20
2023-04-20T04:42:51.351Z,88.40
2023-04-20T04:45:19.039Z,88.00
2023-04-20T04:47:46.433Z,88.00
2023-04-20T04:50:13.635Z,88.10
2023-04-20T04:52:41.113Z,88.40
2023-04-20T04:55:09.780Z,88.70
2023-04-20T04:57:38.762Z,88.80
2023-04-20T05:00:12.073Z,88.90
2023-04-20T05:02:40.316Z,88.70
2023-04-20T05:05:10.974Z,88.50
2023-04-20T05:07:38.562Z,88.40
2023-04-20T05:10:07.290Z,88.50
2023-04-20T05:12:34.893Z,88.70
2023-04-20T05:15:02.407Z,88.80
2023-04-20T05:17:30.130Z,88.90
2023-04-20T05:19:57.129Z,89.20
2023-04-20T05:22:24.604Z,89.00
2023-04-20T05:24:51.501Z,88.90
2023-04-20T05:27:18.477Z,89.00
2023-04-20T05:29:45.398Z,89.40
2023-04-20T05:32:12.358Z,90.00
2023-04-20T05:34:39.236Z,90.10
2023-04-20T05:37:06.663Z,90.20
2023-04-20T05:39:33.549Z,90.30
2023-04-20T05:42:00.810Z,90.40
2023-04-20T05:44:27.732Z,90.40
2023-04-20T05:46:54.644Z,90.40
2023-04-20T05:49:21.718Z,90.30
2023-04-20T05:51:48.701Z,90.40
2023-04-20T05:54:15.685Z,90.50
2023-04-20T05:56:42.558Z,90.40
2023-04-20T05:59:09.768Z,90.60
2023-04-20T06:01:36.822Z,90.20
2023-04-20T06:04:03.825Z,90.10
2023-04-20T06:06:30.966Z,90.00
2023-04-20T06:08:58.172Z,89.90
2023-04-20T06:11:25.351Z,89.80
2023-04-20T06:13:52.301Z,89.80
2023-04-20T06:16:19.337Z,89.80
2023-04-20T06:18:46.288Z,89.90
2023-04-20T06:21:13.322Z,90.00
2023-04-20T06:23:40.971Z,90.20
2023-04-20T06:26:08.898Z,90.20
2023-04-20T06:28:36.642Z,90.10
2023-04-20T06:31:04.844Z,90.10
2023-04-20T06:33:31.956Z,89.80
2023-04-20T06:35:59.165Z,89.60
2023-04-20T06:38:26.164Z,89.50
2023-04-20T06:40:53.084Z,89.40
2023-04-20T06:43:20.049Z,89.30
2023-04-20T06:45:47.037Z,89.20
2023-04-20T06:48:28.040Z,88.70
2023-04-20T06:50:58.822Z,88.80
2023-04-20T06:53:26.273Z,89.00
2023-04-20T06:55:56.680Z,89.40
2023-04-20T06:58:23.657Z,90.10
2023-04-20T07:00:50.591Z,89.70
2023-04-20T07:03:19.026Z,89.50
2023-04-20T07:05:46.755Z,89.30
2023-04-20T07:08:15.653Z,89.00
2023-04-20T07:10:42.813Z,88.90
2023-04-20T07:13:09.797Z,88.30
2023-04-20T07:15:36.784Z,88.10
2023-04-20T07:18:03.824Z,88.20
2023-04-20T07:20:31.214Z,88.60
2023-04-20T07:22:58.154Z,88.60
2023-04-20T07:25:25.858Z,87.30
2023-04-20T07:27:53.024Z,87.00
2023-04-20T07:30:20.139Z,85.70
2023-04-20T07:32:47.059Z,85.00
2023-04-20T07:35:14.132Z,85.00
2023-04-20T07:37:41.253Z,84.20
2023-04-20T07:40:09.299Z,83.80
2023-04-20T07:42:37.316Z,83.50
2023-04-20T07:45:05.589Z,83.60
2023-04-20T07:47:34.294Z,82.70
2023-04-20T07:50:01.464Z,82.90
2023-04-20T07:52:28.439Z,83.60
2023-04-20T07:54:58.031Z,82.80
2023-04-20T07:57:28.587Z,83.10
2023-04-20T07:59:56.804Z,84.10
2023-04-20T08:02:24.485Z,84.00
2023-04-20T08:04:51.842Z,84.20
2023-04-20T08:07:19.107Z,83.90
2023-04-20T08:09:46.031Z,83.80
2023-04-20T08:12:13.151Z,84.00
2023-04-20T08:14:41.279Z,83.20
2023-04-20T08:17:08.571Z,83.10
2023-04-20T08:19:36.252Z,82.60
2023-04-20T08:22:03.539Z,82.90
2023-04-20T08:24:30.640Z,82.30
2023-04-20T08:26:59.343Z,82.30
2023-04-20T08:29:26.534Z,82.80
2023-04-20T08:31:53.565Z,82.50
2023-04-20T08:34:20.762Z,81.00
2023-04-20T08:36:47.877Z,81.80
2023-04-20T08:39:20.222Z,82.50
2023-04-20T08:41:48.169Z,80.10
2023-04-20T08:44:15.275Z,80.20
2023-04-20T08:46:46.979Z,78.40
2023-04-20T08:49:16.588Z,78.20
2023-04-20T08:51:44.940Z,77.30
2023-04-20T08:54:12.624Z,75.30
2023-04-20T08:56:44.759Z,73.60
2023-04-20T08:59:14.205Z,73.40
2023-04-20T09:01:42.498Z,73.40
2023-04-20T09:04:36.268Z,72.90
2023-04-20T09:07:03.356Z,73.40
2023-04-20T09:09:30.233Z,73.60
2023-04-20T09:12:15.076Z,75.30
2023-04-20T09:14:47.128Z,75.70
2023-04-20T09:17:15.258Z,75.70
2023-04-20T09:19:44.857Z,76.00
2023-04-20T09:22:11.986Z,75.80
2023-04-20T09:24:41.321Z,75.30
2023-04-20T09:27:16.721Z,75.30
2023-04-20T09:29:44.324Z,73.60
2023-04-20T09:32:23.777Z,72.50
2023-04-20T09:34:51.010Z,72.70
2023-04-20T09:37:18.027Z,73.20
2023-04-20T09:39:45.681Z,72.80
2023-04-20T09:42:14.561Z,72.60
2023-04-20T09:44:42.064Z,71.30
2023-04-20T09:47:09.953Z,70.90
2023-04-20T09:49:44.221Z,72.00
2023-04-20T09:52:13.189Z,72.80
2023-04-20T09:54:40.325Z,73.30
2023-04-20T09:57:07.493Z,71.00
2023-04-20T09:59:34.809Z,70.60
2023-04-20T10:02:02.196Z,70.90
2023-04-20T10:04:29.295Z,72.30
2023-04-20T10:07:03.553Z,71.40
2023-04-20T10:09:32.333Z,73.40
2023-04-20T10:12:07.407Z,69.70
2023-04-20T10:14:35.697Z,69.10
2023-04-20T10:17:08.648Z,69.10
2023-04-20T10:19:46.294Z,69.30
2023-04-20T10:22:30.805Z,69.00
2023-04-20T10:24:57.730Z,69.20
2023-04-20T10:27:24.955Z,70.10
2023-04-20T10:29:51.901Z,69.30
2023-04-20T10:32:26.443Z,69.20
2023-04-20T10:35:02.581Z,69.20
2023-04-20T10:37:29.909Z,70.60
2023-04-20T10:39:56.914Z,71.20
2023-04-20T10:42:23.918Z,71.90
2023-04-20T10:44:54.768Z,71.40
2023-04-20T10:47:32.462Z,71.00
2023-04-20T10:50:12.836Z,71.90
2023-04-20T10:52:41.953Z,72.10
2023-04-20T10:55:20.662Z,72.20
2023-04-20T10:57:48.241Z,72.30
2023-04-20T11:00:26.410Z,72.80
2023-04-20T11:02:56.421Z,71.70
2023-04-20T11:05:25.959Z,72.40
2023-04-20T11:07:56.821Z,72.70
2023-04-20T11:10:38.752Z,72.00
2023-04-20T11:13:05.834Z,70.90
2023-04-20T11:15:33.858Z,71.70
2023-04-20T11:18:12.089Z,69.40
2023-04-20T11:20:51.147Z,67.80
2023-04-20T11:23:20.930Z,68.40
2023-04-20T11:25:56.578Z,69.80
2023-04-20T11:28:24.083Z,69.60
2023-04-20T11:30:52.808Z,70.10
2023-04-20T11:33:30.764Z,71.40
2023-04-20T11:35:59.366Z,72.10
2023-04-20T11:38:33.899Z,72.70
2023-04-20T11:41:07.863Z,73.10
2023-04-20T11:43:35.991Z,71.90
2023-04-20T11:46:03.374Z,74.00
2023-04-20T11:48:33.889Z,72.00
2023-04-20T11:51:00.810Z,71.40
2023-04-20T11:53:27.715Z,70.10
2023-04-20T11:55:54.570Z,68.40
2023-04-20T11:58:21.549Z,68.80
2023-04-20T12:00:48.448Z,69.60
2023-04-20T12:03:15.856Z,68.70
2023-04-20T12:05:43.386Z,69.50
2023-04-20T12:08:10.456Z,70.40
2023-04-20T12:10:37.408Z,70.90
2023-04-20T12:13:04.405Z,71.50
2023-04-20T12:15:31.567Z,72.80
2023-04-20T12:17:58.560Z,72.20
2023-04-20T12:20:25.807Z,72.20
2023-04-20T12:22:52.838Z,72.90
2023-04-20T12:25:20.180Z,73.40
2023-04-20T12:27:48.230Z,73.20
2023-04-20T12:30:16.771Z,72.60
2023-04-20T12:32:43.815Z,73.70
2023-04-20T12:35:10.720Z,74.00
2023-04-20T12:37:37.666Z,74.50
2023-04-20T12:40:06.472Z,73.80
2023-04-20T12:42:33.448Z,72.70
2023-04-20T12:45:00.542Z,72.40
2023-04-20T12:47:27.601Z,72.60
2023-04-20T12:49:55.129Z,74.00
2023-04-20T12:52:22.214Z,72.90
2023-04-20T12:54:49.968Z,73.70
2023-04-20T12:57:17.108Z,72.70
2023-04-20T12:59:43.982Z,72.40
2023-04-20T13:02:11.974Z,73.30
2023-04-20T13:04:39.114Z,73.40
2023-04-20T13:07:06.534Z,72.20
2023-04-20T13:09:33.390Z,71.80
2023-04-20T13:12:00.356Z,69.10
2023-04-20T13:14:27.232Z,67.80
2023-04-20T13:16:55.512Z,67.10
2023-04-20T13:19:22.773Z,68.00
2023-04-20T13:21:49.659Z,66.70
2023-04-20T13:24:16.661Z,68.10
2023-04-20T13:26:43.826Z,67.30
2023-04-20T13:29:11.171Z,67.90
2023-04-20T13:31:38.282Z,66.90
2023-04-20T13:34:05.279Z,68.90
2023-04-20T13:36:33.223Z,70.60
2023-04-20T13:39:01.252Z,65.20
2023-04-20T13:41:28.186Z,63.40
2023-04-20T13:43:55.163Z,63.50
2023-04-20T13:46:22.131Z,64.40
2023-04-20T13:48:49.256Z,64.60
2023-04-20T13:51:16.129Z,65.10
2023-04-20T13:53:43.174Z,63.40
2023-04-20T13:56:10.707Z,64.00
2023-04-20T13:58:37.599Z,63.30
2023-04-20T14:01:08.873Z,63.10
2023-04-20T14:03:36.107Z,65.30
2023-04-20T14:06:03.699Z,67.00
2023-04-20T14:08:30.911Z,67.30
2023-04-20T14:10:57.838Z,66.80
2023-04-20T14:13:25.319Z,66.30
2023-04-20T14:15:53.983Z,66.00
2023-04-20T14:18:21.012Z,66.20
2023-04-20T14:20:52.246Z,67.30
2023-04-20T14:23:19.759Z,68.00
2023-04-20T14:25:46.861Z,70.00
2023-04-20T14:28:14.989Z,70.40
2023-04-20T14:30:43.232Z,71.50
2023-04-20T14:33:10.743Z,72.80
2023-04-20T14:35:37.955Z,73.80
2023-04-20T14:38:05.414Z,75.30
2023-04-20T14:40:32.436Z,76.40
2023-04-20T14:42:59.402Z,77.70
2023-04-20T14:45:26.343Z,77.90
2023-04-20T14:47:55.092Z,78.40
2023-04-20T14:50:24.213Z,79.20
2023-04-20T14:52:52.446Z,79.60
2023-04-20T14:55:23.456Z,80.00
2023-04-20T14:57:57.625Z,80.80
2023-04-20T15:00:28.380Z,81.70
2023-04-20T15:03:00.678Z,82.00
2023-04-20T15:05:28.651Z,83.00
2023-04-20T15:07:57.532Z,83.80
2023-04-20T15:10:24.927Z,84.90
2023-04-20T15:12:51.964Z,85.30
2023-04-20T15:15:19.090Z,86.00
2023-04-20T15:17:46.869Z,86.30
2023-04-20T15:20:15.440Z,86.90
2023-04-20T15:22:42.387Z,86.90
2023-04-20T15:25:09.713Z,87.40
2023-04-20T15:27:36.581Z,88.10
2023-04-20T15:30:04.253Z,88.70
2023-04-20T15:32:33.587Z,88.70
2023-04-20T15:35:01.165Z,89.50
2023-04-20T15:37:28.482Z,89.50
2023-04-20T15:39:56.138Z,89.70
2023-04-20T15:42:23.147Z,90.00
2023-04-20T15:44:50.099Z,90.30
2023-04-20T15:47:16.984Z,90.50
2023-04-20T15:49:44.077Z,90.80
2023-04-20T15:52:11.166Z,91.10
2023-04-20T15:54:38.736Z,91.50
2023-04-20T15:57:05.599Z,91.90
2023-04-20T15:59:32.912Z,92.20
2023-04-20T16:01:59.992Z,92.40
2023-04-20T16:04:27.157Z,92.50
2023-04-20T16:06:54.434Z,92.80
2023-04-20T16:09:23.565Z,93.10
2023-04-20T16:11:50.945Z,93.40
2023-04-20T16:14:18.368Z,93.50
2023-04-20T16:16:45.777Z,93.50
2023-04-20T16:19:14.558Z,94.00
2023-04-20T16:21:41.596Z,94.20
2023-04-20T16:24:08.539Z,94.20
2023-04-20T16:26:36.142Z,94.30
2023-04-20T16:29:03.638Z,94.60
2023-04-20T16:31:31.187Z,94.50
2023-04-20T16:33:58.841Z,94.60
2023-04-20T16:36:27.100Z,94.60
2023-04-20T16:38:54.198Z,94.60
2023-04-20T16:41:21.804Z,94.70
2023-04-20T16:43:48.887Z,94.80
2023-04-20T16:46:16.509Z,94.60
2023-04-20T16:48:44.123Z,94.80
2023-04-20T16:51:11.053Z,94.80
2023-04-20T16:53:38.066Z,94.90
2023-04-20T16:56:05.101Z,95.00
2023-04-20T16:58:32.206Z,95.00
2023-04-20T17:00:59.099Z,95.20
2023-04-20T17:03:26.408Z,95.30
2023-04-20T17:05:53.614Z,95.30
2023-04-20T17:08:21.571Z,95.50
2023-04-20T17:10:48.455Z,95.70
2023-04-20T17:13:15.628Z,95.80
2023-04-20T17:15:44.985Z,96.00
2023-04-20T17:18:12.030Z,96.10
2023-04-20T17:20:39.001Z,96.20
2023-04-20T17:23:05.976Z,96.40
2023-04-20T17:25:32.943Z,96.40
2023-04-20T17:27:59.907Z,96.40
2023-04-20T17:30:26.836Z,96.50
2023-04-20T17:32:54.130Z,96.50
2023-04-20T17:35:21.184Z,96.50
2023-04-20T17:37:48.662Z,96.60
2023-04-20T17:40:15.589Z,96.60
2023-04-20T17:42:42.597Z,96.70
2023-04-20T17:45:09.826Z,96.90
2023-04-20T17:47:36.773Z,97.20
2023-04-20T17:50:04.750Z,97.20
2023-04-20T17:52:31.910Z,97.40
2023-04-20T17:55:00.229Z,97.60
2023-04-20T17:57:27.547Z,97.70
2023-04-20T17:59:54.520Z,97.80
2023-04-20T18:02:22.945Z,97.90
2023-04-20T18:04:50.244Z,98.00
2023-04-20T18:07:18.451Z,98.10
2023-04-20T18:09:45.519Z,98.20
2023-04-20T18:12:12.941Z,98.10
2023-04-20T18:14:40.848Z,98.00
2023-04-20T18:17:08.512Z,98.00
2023-04-20T18:19:35.620Z,98.00
2023-04-20T18:22:02.757Z,98.10
2023-04-20T18:24:29.657Z,98.20
2023-04-20T18:26:56.648Z,98.20
2023-04-20T18:29:23.688Z,98.30
2023-04-20T18:31:53.388Z,98.30
2023-04-20T18:34:20.665Z,98.30
2023-04-20T18:36:47.715Z,98.40
2023-04-20T18:39:15.133Z,98.50
2023-04-20T18:41:42.375Z,98.50
2023-04-20T18:44:09.334Z,98.50
2023-04-20T18:46:36.436Z,98.50
2023-04-20T18:49:03.525Z,98.40
2023-04-20T18:51:32.060Z,98.30
2023-04-20T18:53:58.976Z,98.30
2023-04-20T18:56:26.123Z,98.30
2023-04-20T18:58:53.057Z,98.30
2023-04-20T19:01:20.034Z,98.20
2023-04-20T19:03:48.214Z,98.10
2023-04-20T19:06:15.432Z,98.10
2023-04-20T19:08:42.288Z,98.20
2023-04-20T19:11:09.270Z,98.30
2023-04-20T19:13:36.190Z,98.40
2023-04-20T19:16:04.675Z,98.30
2023-04-20T19:18:31.642Z,98.30
2023-04-20T19:20:58.623Z,98.30
2023-04-20T19:23:25.737Z,98.10
2023-04-20T19:25:52.822Z,98.10
2023-04-20T19:28:20.084Z,98.20
2023-04-20T19:30:48.055Z,98.20
2023-04-20T19:33:15.345Z,98.10
2023-04-20T19:35:43.486Z,98.20
2023-04-20T19:38:10.415Z,98.20
2023-04-20T19:40:37.386Z,98.30
2023-04-20T19:43:04.336Z,98.30
2023-04-20T19:45:31.245Z,98.20
2023-04-20T19:47:58.232Z,98.20
2023-04-20T19:50:25.573Z,98.30
2023-04-20T19:52:52.467Z,98.40
2023-04-20T19:55:19.615Z,98.40
2023-04-20T19:57:46.465Z,98.40
2023-04-20T20:00:13.730Z,98.30
2023-04-20T20:02:42.084Z,98.30
2023-04-20T20:05:09.516Z,98.30
2023-04-20T20:07:36.724Z,98.30
2023-04-20T20:10:04.567Z,98.40
2023-04-20T20:12:31.476Z,98.40
2023-04-20T20:14:59.491Z,98.40
2023-04-20T20:17:26.512Z,98.50
2023-04-20T20:19:55.726Z,98.30
2023-04-20T20:22:23.025Z,98.30
2023-04-20T20:24:52.122Z,98.30
2023-04-20T20:27:19.071Z,98.40
2023-04-20T20:29:45.984Z,98.50
2023-04-20T20:32:12.941Z,98.60
2023-04-20T20:34:39.857Z,98.70
2023-04-20T20:37:07.028Z,98.80
2023-04-20T20:39:34.007Z,98.80
2023-04-20T20:42:02.169Z,98.90
2023-04-20T20:44:32.817Z,98.90
2023-04-20T20:47:00.905Z,98.80
2023-04-20T20:49:28.142Z,98.80
2023-04-20T20:51:55.020Z,98.80
2023-04-20T20:54:22.283Z,98.70
2023-04-20T20:56:49.234Z,98.70
2023-04-20T20:59:16.412Z,98.70
2023-04-20T21:01:43.486Z,98.50
2023-04-20T21:04:10.617Z,98.50
2023-04-20T21:06:37.645Z,98.50
2023-04-20T21:09:04.701Z,98.60
2023-04-20T21:11:31.630Z,98.50
2023-04-20T21:14:01.754Z,98.60
2023-04-20T21:16:29.233Z,98.60
2023-04-20T21:18:56.259Z,98.50
2023-04-20T21:21:23.282Z,98.50
2023-04-20T21:23:50.575Z,98.50
2023-04-20T21:26:17.738Z,98.50
2023-04-20T21:28:44.634Z,98.50
2023-04-20T21:31:11.660Z,98.50
2023-04-20T21:33:38.652Z,98.50
2023-04-20T21:36:06.083Z,98.50
2023-04-20T21:38:33.089Z,98.40
2023-04-20T21:41:00.005Z,98.40
2023-04-20T21:43:26.896Z,98.60
2023-04-20T21:45:53.997Z,98.40
2023-04-20T21:48:20.852Z,98.30
2023-04-20T21:50:47.762Z,98.40
2023-04-20T21:53:14.785Z,98.40
2023-04-20T21:55:41.757Z,98.40
2023-04-20T21:58:08.663Z,98.40
2023-04-20T22:00:35.649Z,98.40
2023-04-20T22:03:02.660Z,98.40
2023-04-20T22:05:29.874Z,98.30
2023-04-20T22:07:59.658Z,98.30
2023-04-20T22:10:27.022Z,98.30
2023-04-20T22:12:53.997Z,98.30
2023-04-20T22:15:23.524Z,98.30
2023-04-20T22:17:50.498Z,98.30
2023-04-20T22:20:19.210Z,98.30
2023-04-20T22:22:46.734Z,98.20
2023-04-20T22:25:13.785Z,98.20
2023-04-20T22:27:40.870Z,98.20
2023-04-20T22:30:09.599Z,98.20
2023-04-20T22:32:38.484Z,98.10
2023-04-20T22:35:05.961Z,98.10
2023-04-20T22:37:32.935Z,98.10
2023-04-20T22:40:00.078Z,98.20
2023-04-20T22:42:27.353Z,98.20
2023-04-20T22:44:54.378Z,98.10
2023-04-20T22:47:21.420Z,98.10
2023-04-20T22:49:50.658Z,98.10
2023-04-20T22:52:17.622Z,98.00
2023-04-20T22:54:48.410Z,98.30
2023-04-20T22:57:16.096Z,98.10
2023-04-20T22:59:43.169Z,98.00
2023-04-20T23:02:10.507Z,97.90
2023-04-20T23:04:40.200Z,97.90
2023-04-20T23:07:08.290Z,98.00
2023-04-20T23:09:39.886Z,98.10
2023-04-20T23:12:11.685Z,98.20
2023-04-20T23:14:39.282Z,98.20
2023-04-20T23:17:06.772Z,98.20
2023-04-20T23:19:33.777Z,98.20
2023-04-20T23:22:01.532Z,98.20
2023-04-20T23:24:28.975Z,98.10
2023-04-20T23:26:56.899Z,98.10
2023-04-20T23:29:23.870Z,98.00
2023-04-20T23:31:50.831Z,98.00
2023-04-20T23:34:18.465Z,97.90
2023-04-20T23:36:46.396Z,97.80
2023-04-20T23:39:13.372Z,98.10
2023-04-20T23:41:40.730Z,97.80
2023-04-20T23:44:07.846Z,97.80
2023-04-20T23:46:34.914Z,97.80
2023-04-20T23:49:02.003Z,97.90
2023-04-20T23:51:29.043Z,97.90
2023-04-20T23:53:55.984Z,97.90
2023-04-20T23:56:23.391Z,97.90
2023-04-20T23:58:51.897Z,97.80
